createdAt,value
2022-09-27T00:01:21.990Z,31.83
2022-09-27T00:03:55.267Z,30.10
2022-09-27T00:06:26.745Z,29.20
2022-09-27T00:08:55.750Z,29.10
2022-09-27T00:11:28.173Z,27.53
2022-09-27T00:13:57.830Z,27.03
2022-09-27T00:16:28.655Z,27.27
2022-09-27T00:19:02.059Z,26.90
2022-09-27T00:21:32.293Z,25.53
2022-09-27T00:24:01.707Z,26.40
2022-09-27T00:26:30.810Z,28.53
2022-09-27T00:28:59.844Z,29.77
2022-09-27T00:31:30.535Z,29.23
2022-09-27T00:34:03.490Z,28.47
2022-09-27T00:36:33.968Z,27.10
2022-09-27T00:39:03.123Z,28.87
2022-09-27T00:41:33.534Z,27.23
2022-09-27T00:44:04.857Z,28.93
2022-09-27T00:46:38.227Z,27.33
2022-09-27T00:49:20.772Z,27.87
2022-09-27T00:51:55.550Z,27.60
2022-09-27T00:54:28.099Z,26.60
2022-09-27T00:56:57.797Z,27.70
2022-09-27T00:59:30.187Z,27.53
2022-09-27T01:01:59.039Z,27.93
2022-09-27T01:04:32.222Z,28.17
2022-09-27T01:07:01.690Z,28.33
2022-09-27T01:09:30.939Z,28.03
2022-09-27T01:12:08.618Z,28.17
2022-09-27T01:14:54.732Z,27.97
2022-09-27T01:17:36.681Z,29.63
2022-09-27T01:20:25.316Z,34.27
2022-09-27T01:23:09.562Z,37.87
2022-09-27T01:25:56.904Z,38.00
2022-09-27T01:28:41.493Z,38.17
2022-09-27T01:31:17.704Z,38.37
2022-09-27T01:33:51.376Z,35.40
2022-09-27T01:36:28.924Z,35.23
2022-09-27T01:39:18.988Z,33.80
2022-09-27T01:42:13.796Z,32.63
2022-09-27T01:44:54.147Z,33.93
2022-09-27T01:47:34.746Z,34.17
2022-09-27T01:50:25.878Z,35.50
2022-09-27T01:53:00.613Z,37.33
2022-09-27T01:55:40.342Z,37.83
2022-09-27T01:58:48.045Z,37.90
2022-09-27T02:01:20.167Z,38.23
2022-09-27T02:03:53.131Z,38.20
2022-09-27T02:06:45.701Z,36.47
2022-09-27T02:09:28.845Z,35.20
2022-09-27T02:12:12.710Z,32.93
2022-09-27T02:14:50.117Z,32.57
2022-09-27T02:17:32.518Z,30.73
2022-09-27T02:20:13.197Z,32.17
2022-09-27T02:22:52.677Z,30.43
2022-09-27T02:25:25.421Z,31.70
2022-09-27T02:28:02.203Z,34.00
2022-09-27T02:30:36.237Z,33.57
2022-09-27T02:33:19.877Z,34.30
2022-09-27T02:35:50.640Z,33.87
2022-09-27T02:38:20.346Z,34.63
2022-09-27T02:40:49.623Z,33.53
2022-09-27T02:43:20.327Z,35.60
2022-09-27T02:46:14.601Z,34.37
2022-09-27T02:48:53.881Z,33.03
2022-09-27T02:51:42.841Z,31.93
2022-09-27T02:54:20.507Z,32.50
2022-09-27T02:57:30.365Z,31.10
2022-09-27T03:00:18.600Z,31.40
2022-09-27T03:03:04.484Z,34.87
2022-09-27T03:05:43.276Z,34.77
2022-09-27T03:08:14.180Z,32.70
2022-09-27T03:10:43.171Z,31.00
2022-09-27T03:13:12.226Z,29.13
2022-09-27T03:15:41.688Z,28.63
2022-09-27T03:18:10.507Z,29.37
2022-09-27T03:20:58.035Z,28.63
2022-09-27T03:23:29.614Z,32.63
2022-09-27T03:25:58.886Z,35.47
2022-09-27T03:28:29.771Z,42.20
2022-09-27T03:30:58.991Z,40.13
2022-09-27T03:33:45.717Z,32.33
2022-09-27T03:36:15.009Z,30.43
2022-09-27T03:38:45.438Z,30.03
2022-09-27T03:41:18.377Z,29.00
2022-09-27T03:43:47.329Z,28.67
2022-09-27T03:46:16.769Z,27.47
2022-09-27T03:48:46.100Z,28.70
2022-09-27T03:51:14.770Z,27.83
2022-09-27T03:53:45.332Z,27.83
2022-09-27T03:56:14.594Z,27.87
2022-09-27T03:58:43.608Z,28.00
2022-09-27T04:01:13.151Z,28.83
2022-09-27T04:03:43.576Z,29.43
2022-09-27T04:06:41.767Z,26.90
2022-09-27T04:09:12.208Z,27.57
2022-09-27T04:11:58.677Z,28.57
2022-09-27T04:14:28.092Z,27.20
2022-09-27T04:17:23.038Z,27.00
2022-09-27T04:20:12.626Z,27.23
2022-09-27T04:22:45.626Z,26.60
2022-09-27T04:25:16.379Z,26.33
2022-09-27T04:27:46.935Z,25.63
2022-09-27T04:30:16.956Z,26.00
2022-09-27T04:33:07.133Z,25.40
2022-09-27T04:36:26.382Z,25.10
2022-09-27T04:39:11.599Z,26.70
2022-09-27T04:41:45.502Z,26.20
2022-09-27T04:44:14.922Z,26.50
2022-09-27T04:46:48.295Z,26.53
2022-09-27T04:49:17.883Z,26.80
2022-09-27T04:51:47.904Z,25.90
2022-09-27T04:54:16.500Z,26.73
2022-09-27T04:57:10.061Z,27.87
2022-09-27T04:59:40.689Z,28.30
2022-09-27T05:02:09.875Z,27.57
2022-09-27T05:04:59.553Z,28.63
2022-09-27T05:07:35.311Z,28.67
2022-09-27T05:10:09.488Z,28.87
2022-09-27T05:12:39.573Z,30.63
2022-09-27T05:15:09.863Z,30.63
2022-09-27T05:17:58.866Z,29.77
2022-09-27T05:20:58.927Z,31.13
2022-09-27T05:23:34.364Z,31.33
2022-09-27T05:26:05.578Z,32.50
2022-09-27T05:28:36.451Z,31.93
2022-09-27T05:31:05.814Z,32.50
2022-09-27T05:33:34.845Z,32.37
2022-09-27T05:36:26.723Z,32.53
2022-09-27T05:38:55.526Z,32.83
2022-09-27T05:41:25.546Z,33.17
2022-09-27T05:43:55.793Z,32.63
2022-09-27T05:46:24.520Z,31.57
2022-09-27T05:48:54.134Z,34.97
2022-09-27T05:51:22.862Z,35.50
2022-09-27T05:53:51.443Z,35.53
2022-09-27T05:56:26.703Z,35.33
2022-09-27T05:59:15.370Z,35.50
2022-09-27T06:02:04.824Z,34.90
2022-09-27T06:04:56.849Z,35.33
2022-09-27T06:08:02.064Z,34.90
2022-09-27T06:10:39.446Z,34.23
2022-09-27T06:13:12.457Z,35.13
2022-09-27T06:15:47.351Z,33.53
2022-09-27T06:18:18.260Z,33.70
2022-09-27T06:20:49.743Z,34.80
2022-09-27T06:23:20.794Z,33.37
2022-09-27T06:25:51.870Z,31.60
2022-09-27T06:28:58.723Z,30.77
2022-09-27T06:31:29.271Z,30.50
2022-09-27T06:34:10.222Z,31.63
2022-09-27T06:36:38.809Z,32.33
2022-09-27T06:39:08.145Z,31.60
2022-09-27T06:41:57.826Z,33.27
2022-09-27T06:44:50.469Z,34.17
2022-09-27T06:47:56.119Z,33.60
2022-09-27T06:51:03.190Z,33.93
2022-09-27T06:53:33.098Z,35.90
2022-09-27T06:56:02.523Z,32.67
2022-09-27T06:58:59.232Z,31.07
2022-09-27T07:01:47.061Z,30.00
2022-09-27T07:04:32.341Z,30.70
2022-09-27T07:07:12.239Z,28.50
2022-09-27T07:09:44.573Z,27.50
2022-09-27T07:12:14.275Z,28.40
2022-09-27T07:14:44.558Z,27.57
2022-09-27T07:17:16.519Z,28.63
2022-09-27T07:19:48.082Z,26.37
2022-09-27T07:22:16.665Z,27.33
2022-09-27T07:24:49.488Z,26.53
2022-09-27T07:27:18.512Z,25.13
2022-09-27T07:29:47.576Z,25.73
2022-09-27T07:32:16.400Z,24.00
2022-09-27T07:34:45.079Z,23.23
2022-09-27T07:37:15.863Z,22.07
2022-09-27T07:39:46.253Z,20.53
2022-09-27T07:42:15.184Z,18.67
2022-09-27T07:44:47.352Z,17.87
2022-09-27T07:47:51.192Z,17.23
2022-09-27T07:50:26.444Z,16.73
2022-09-27T07:53:07.535Z,16.73
2022-09-27T07:55:38.317Z,16.30
2022-09-27T07:58:22.199Z,15.17
2022-09-27T08:00:54.754Z,15.63
2022-09-27T08:03:23.500Z,15.10
2022-09-27T08:05:52.150Z,16.73
2022-09-27T08:08:22.175Z,16.60
2022-09-27T08:10:52.520Z,16.10
2022-09-27T08:13:21.745Z,16.07
2022-09-27T08:15:53.535Z,15.20
2022-09-27T08:18:24.750Z,15.57
2022-09-27T08:20:53.701Z,15.27
2022-09-27T08:23:32.780Z,15.13
2022-09-27T08:26:30.093Z,15.27
2022-09-27T08:29:19.285Z,14.00
2022-09-27T08:31:54.427Z,14.20
2022-09-27T08:34:24.704Z,13.40
2022-09-27T08:36:55.887Z,14.07
2022-09-27T08:39:28.019Z,12.80
2022-09-27T08:42:03.619Z,13.17
2022-09-27T08:44:42.137Z,13.37
2022-09-27T08:47:19.391Z,13.73
2022-09-27T08:49:52.866Z,14.43
2022-09-27T08:52:27.603Z,12.67
2022-09-27T08:55:02.432Z,12.23
2022-09-27T08:57:31.113Z,12.70
2022-09-27T09:00:05.934Z,12.90
2022-09-27T09:02:36.505Z,13.13
2022-09-27T09:05:11.884Z,12.40
2022-09-27T09:07:58.181Z,13.23
2022-09-27T09:11:02.146Z,13.07
2022-09-27T09:13:49.824Z,13.50
2022-09-27T09:16:31.519Z,14.13
2022-09-27T09:19:17.791Z,15.50
2022-09-27T09:22:14.565Z,14.83
2022-09-27T09:25:00.907Z,17.10
2022-09-27T09:27:40.606Z,16.23
2022-09-27T09:30:22.032Z,20.83
2022-09-27T09:33:15.029Z,17.50
2022-09-27T09:35:51.028Z,17.03
2022-09-27T09:38:24.514Z,17.40
2022-09-27T09:40:59.806Z,18.33
2022-09-27T09:43:37.271Z,19.20
2022-09-27T09:46:17.513Z,18.47
2022-09-27T09:48:51.392Z,18.03
2022-09-27T09:51:23.618Z,18.57
2022-09-27T09:53:58.825Z,18.20
2022-09-27T09:56:42.071Z,19.33
2022-09-27T09:59:18.621Z,19.60
2022-09-27T10:01:50.336Z,21.50
2022-09-27T10:04:23.940Z,23.00
2022-09-27T10:06:56.560Z,24.70
2022-09-27T10:09:29.980Z,23.90
2022-09-27T10:12:17.627Z,24.93
2022-09-27T10:14:54.555Z,24.00
2022-09-27T10:17:27.265Z,24.47
2022-09-27T10:19:59.889Z,23.47
2022-09-27T10:22:32.914Z,21.47
2022-09-27T10:25:10.843Z,21.80
2022-09-27T10:27:57.020Z,20.80
2022-09-27T10:30:35.118Z,21.93
2022-09-27T10:33:19.291Z,20.80
2022-09-27T10:36:03.689Z,20.37
2022-09-27T10:38:38.736Z,18.07
2022-09-27T10:41:32.613Z,18.47
2022-09-27T10:44:23.138Z,20.27
2022-09-27T10:47:27.212Z,20.20
2022-09-27T10:50:49.579Z,20.30
2022-09-27T10:53:36.535Z,20.67
2022-09-27T10:56:24.216Z,22.17
2022-09-27T10:58:53.544Z,20.97
2022-09-27T11:01:23.832Z,22.37
2022-09-27T11:04:22.185Z,24.50
2022-09-27T11:06:50.987Z,23.77
2022-09-27T11:09:26.482Z,24.40
2022-09-27T11:12:11.354Z,24.70
2022-09-27T11:14:40.878Z,25.37
2022-09-27T11:17:18.864Z,27.07
2022-09-27T11:20:16.630Z,27.00
2022-09-27T11:23:18.996Z,29.23
2022-09-27T11:26:00.580Z,27.67
2022-09-27T11:28:40.700Z,27.93
2022-09-27T11:31:26.205Z,26.30
2022-09-27T11:34:31.939Z,29.53
2022-09-27T11:37:22.514Z,30.37
2022-09-27T11:40:06.271Z,31.20
2022-09-27T11:42:53.009Z,29.73
2022-09-27T11:45:56.222Z,29.67
2022-09-27T11:48:40.220Z,29.33
2022-09-27T11:51:31.240Z,27.50
2022-09-27T11:54:16.254Z,25.80
2022-09-27T11:56:52.634Z,25.10
2022-09-27T11:59:38.920Z,24.30
2022-09-27T12:02:25.755Z,21.30
2022-09-27T12:05:07.417Z,18.07
2022-09-27T12:07:45.391Z,17.20
2022-09-27T12:10:19.196Z,17.40
2022-09-27T12:12:53.635Z,20.03
2022-09-27T12:15:27.043Z,19.60
2022-09-27T12:18:02.509Z,15.47
2022-09-27T12:20:36.658Z,17.20
2022-09-27T12:23:09.390Z,19.27
2022-09-27T12:26:00.142Z,19.03
2022-09-27T12:28:39.617Z,20.30
2022-09-27T12:31:31.778Z,19.50
2022-09-27T12:34:19.366Z,16.40
2022-09-27T12:36:56.213Z,16.50
2022-09-27T12:39:30.218Z,13.33
2022-09-27T12:42:20.450Z,13.60
2022-09-27T12:44:50.988Z,13.43
2022-09-27T12:47:37.886Z,13.13
2022-09-27T12:50:16.677Z,13.20
2022-09-27T12:52:52.199Z,13.70
2022-09-27T12:55:55.919Z,13.70
2022-09-27T12:59:07.178Z,12.83
2022-09-27T13:01:56.016Z,12.00
2022-09-27T13:04:47.578Z,12.90
2022-09-27T13:07:35.931Z,13.27
2022-09-27T13:10:30.587Z,13.27
2022-09-27T13:13:04.755Z,13.97
2022-09-27T13:15:37.432Z,13.77
2022-09-27T13:18:08.479Z,14.40
2022-09-27T13:20:49.038Z,14.63
2022-09-27T13:23:59.439Z,13.67
2022-09-27T13:26:51.990Z,13.43
2022-09-27T13:29:27.468Z,16.17
2022-09-27T13:32:18.070Z,15.13
2022-09-27T13:35:20.538Z,16.43
2022-09-27T13:37:59.305Z,14.13
2022-09-27T13:40:44.628Z,13.90
2022-09-27T13:43:48.694Z,14.20
2022-09-27T13:46:29.159Z,14.03
2022-09-27T13:49:03.055Z,13.60
2022-09-27T13:51:56.224Z,14.73
2022-09-27T13:54:50.882Z,16.73
2022-09-27T13:57:42.188Z,15.13
2022-09-27T14:00:18.749Z,15.20
2022-09-27T14:03:06.663Z,15.53
2022-09-27T14:05:43.209Z,15.63
2022-09-27T14:08:22.622Z,16.87
2022-09-27T14:10:52.338Z,17.80
2022-09-27T14:13:24.161Z,20.27
2022-09-27T14:16:04.483Z,19.63
2022-09-27T14:18:36.397Z,17.67
2022-09-27T14:21:20.792Z,21.07
2022-09-27T14:24:30.405Z,21.00
2022-09-27T14:27:17.428Z,21.23
2022-09-27T14:29:50.101Z,25.13
2022-09-27T14:32:25.614Z,25.47
2022-09-27T14:35:28.738Z,20.43
2022-09-27T14:38:02.460Z,23.63
2022-09-27T14:40:43.562Z,23.80
2022-09-27T14:43:17.511Z,23.90
2022-09-27T14:45:48.349Z,25.63
2022-09-27T14:48:23.761Z,25.67
2022-09-27T14:51:05.038Z,26.87
2022-09-27T14:53:42.493Z,27.27
2022-09-27T14:56:18.039Z,26.43
2022-09-27T14:58:48.409Z,26.40
2022-09-27T15:01:20.124Z,25.67
2022-09-27T15:03:49.953Z,24.27
2022-09-27T15:06:19.281Z,25.43
2022-09-27T15:08:50.378Z,27.83
2022-09-27T15:11:20.488Z,25.37
2022-09-27T15:13:52.941Z,28.87
2022-09-27T15:16:25.457Z,25.73
2022-09-27T15:19:03.947Z,34.00
2022-09-27T15:21:34.238Z,31.47
2022-09-27T15:24:05.214Z,25.23
2022-09-27T15:26:39.648Z,27.73
2022-09-27T15:29:18.892Z,23.63
2022-09-27T15:31:47.555Z,22.70
2022-09-27T15:34:20.339Z,22.33
2022-09-27T15:36:55.744Z,25.20
2022-09-27T15:39:32.384Z,25.13
2022-09-27T15:42:09.138Z,23.03
2022-09-27T15:44:40.446Z,21.67
2022-09-27T15:47:40.577Z,24.53
2022-09-27T15:50:33.846Z,31.33
2022-09-27T15:53:02.958Z,28.80
2022-09-27T15:55:35.035Z,30.10
2022-09-27T15:58:05.767Z,26.07
2022-09-27T16:00:35.007Z,27.23
2022-09-27T16:03:04.069Z,30.07
2022-09-27T16:05:33.251Z,35.10
2022-09-27T16:08:02.284Z,29.80
2022-09-27T16:10:38.667Z,26.20
2022-09-27T16:13:07.318Z,25.07
2022-09-27T16:15:35.889Z,25.93
2022-09-27T16:18:05.224Z,29.10
2022-09-27T16:20:34.094Z,27.63
2022-09-27T16:23:03.339Z,29.23
2022-09-27T16:25:33.792Z,43.37
2022-09-27T16:28:03.696Z,59.80
2022-09-27T16:30:33.749Z,48.77
2022-09-27T16:33:02.537Z,52.60
2022-09-27T16:35:31.277Z,36.57
2022-09-27T16:38:00.024Z,35.47
2022-09-27T16:40:30.833Z,29.63
2022-09-27T16:43:00.935Z,30.73
2022-09-27T16:45:33.489Z,37.13
2022-09-27T16:48:02.793Z,32.00
2022-09-27T16:50:48.798Z,29.07
2022-09-27T16:53:17.671Z,30.83
2022-09-27T16:55:46.510Z,31.40
2022-09-27T16:58:16.935Z,31.53
2022-09-27T17:00:45.889Z,29.20
2022-09-27T17:03:14.757Z,28.20
2022-09-27T17:05:43.411Z,27.80
2022-09-27T17:08:12.235Z,25.90
2022-09-27T17:10:46.352Z,23.63
2022-09-27T17:13:16.532Z,25.37
2022-09-27T17:15:45.290Z,25.13
2022-09-27T17:18:14.323Z,26.27
2022-09-27T17:20:43.861Z,20.60
2022-09-27T17:23:12.987Z,18.87
2022-09-27T17:25:41.909Z,12.93
2022-09-27T17:28:10.904Z,8.90
2022-09-27T17:30:45.196Z,6.93
2022-09-27T17:33:13.994Z,5.43
2022-09-27T17:35:45.026Z,4.63
2022-09-27T17:38:13.931Z,4.70
2022-09-27T17:40:42.699Z,4.23
2022-09-27T17:43:11.558Z,3.60
2022-09-27T17:45:42.800Z,3.07
2022-09-27T17:48:29.210Z,2.60
2022-09-27T17:50:58.309Z,3.23
2022-09-27T17:53:27.128Z,2.40
2022-09-27T17:56:02.179Z,2.17
2022-09-27T17:58:31.172Z,2.20
2022-09-27T18:01:04.637Z,2.77
2022-09-27T18:03:33.346Z,2.13
2022-09-27T18:06:07.262Z,2.70
2022-09-27T18:08:36.000Z,2.40
2022-09-27T18:11:06.115Z,2.20
2022-09-27T18:13:37.776Z,2.70
2022-09-27T18:16:08.882Z,2.83
2022-09-27T18:18:39.709Z,3.00
2022-09-27T18:21:11.398Z,3.10
2022-09-27T18:23:39.912Z,3.00
2022-09-27T18:26:09.087Z,3.40
2022-09-27T18:28:38.838Z,4.00
2022-09-27T18:31:11.192Z,3.93
2022-09-27T18:33:40.461Z,4.20
2022-09-27T18:36:12.119Z,4.27
2022-09-27T18:38:41.139Z,4.30
2022-09-27T18:41:11.172Z,4.30
2022-09-27T18:43:40.555Z,4.10
2022-09-27T18:46:34.657Z,4.50
2022-09-27T18:49:01.806Z,4.50
2022-09-27T18:51:31.782Z,3.80
2022-09-27T18:54:02.570Z,4.00
2022-09-27T18:56:35.064Z,4.03
2022-09-27T18:59:03.704Z,4.53
2022-09-27T19:01:36.293Z,4.30
2022-09-27T19:04:05.194Z,4.33
2022-09-27T19:06:34.239Z,4.37
2022-09-27T19:09:03.976Z,4.23
2022-09-27T19:11:33.087Z,4.73
2022-09-27T19:14:02.477Z,4.27
2022-09-27T19:16:31.898Z,4.17
2022-09-27T19:19:02.026Z,5.20
2022-09-27T19:21:31.268Z,4.47
2022-09-27T19:24:00.353Z,4.13
2022-09-27T19:26:29.046Z,4.50
2022-09-27T19:28:58.898Z,4.10
2022-09-27T19:31:29.877Z,4.30
2022-09-27T19:34:00.528Z,4.37
2022-09-27T19:36:31.286Z,4.13
2022-09-27T19:39:00.327Z,5.00
2022-09-27T19:41:29.146Z,6.70
2022-09-27T19:43:58.781Z,5.40
2022-09-27T19:46:28.225Z,6.37
2022-09-27T19:48:57.061Z,4.83
2022-09-27T19:51:27.132Z,5.33
2022-09-27T19:53:58.062Z,5.50
2022-09-27T19:56:26.987Z,5.33
2022-09-27T19:58:56.180Z,5.90
2022-09-27T20:01:26.873Z,5.40
2022-09-27T20:03:56.866Z,5.90
2022-09-27T20:06:25.676Z,5.37
2022-09-27T20:08:55.785Z,5.97
2022-09-27T20:11:26.946Z,5.37
2022-09-27T20:13:55.815Z,5.90
2022-09-27T20:16:26.304Z,6.03
2022-09-27T20:18:57.187Z,5.80
2022-09-27T20:21:28.829Z,6.07
2022-09-27T20:23:58.327Z,6.00
2022-09-27T20:26:29.685Z,6.17
2022-09-27T20:28:59.782Z,6.47
2022-09-27T20:31:29.935Z,6.53
2022-09-27T20:33:58.777Z,7.30
2022-09-27T20:36:29.524Z,7.10
2022-09-27T20:39:03.106Z,6.67
2022-09-27T20:41:35.877Z,6.43
2022-09-27T20:44:06.955Z,6.80
2022-09-27T20:46:37.260Z,7.20
2022-09-27T20:49:08.389Z,7.70
2022-09-27T20:51:39.416Z,8.80
2022-09-27T20:54:10.295Z,7.43
2022-09-27T20:56:42.867Z,7.23
2022-09-27T20:59:16.968Z,7.70
2022-09-27T21:01:47.616Z,8.40
2022-09-27T21:04:18.341Z,7.67
2022-09-27T21:06:47.506Z,8.27
2022-09-27T21:09:19.178Z,8.23
2022-09-27T21:11:51.891Z,8.00
2022-09-27T21:14:21.062Z,8.00
2022-09-27T21:16:49.988Z,7.77
2022-09-27T21:19:19.336Z,8.40
2022-09-27T21:21:48.205Z,8.53
2022-09-27T21:24:16.844Z,8.47
2022-09-27T21:26:45.695Z,9.70
2022-09-27T21:29:16.308Z,8.57
2022-09-27T21:31:45.270Z,8.53
2022-09-27T21:34:13.896Z,9.20
2022-09-27T21:36:42.715Z,8.90
2022-09-27T21:39:11.396Z,8.97
2022-09-27T21:41:39.997Z,9.37
2022-09-27T21:44:09.397Z,9.40
2022-09-27T21:46:43.505Z,9.63
2022-09-27T21:49:12.477Z,9.20
2022-09-27T21:51:43.146Z,10.00
2022-09-27T21:54:15.140Z,8.97
2022-09-27T21:56:44.969Z,9.27
2022-09-27T21:59:18.192Z,8.10
2022-09-27T22:01:48.868Z,8.40
2022-09-27T22:04:17.824Z,8.27
2022-09-27T22:06:46.711Z,8.63
2022-09-27T22:09:17.367Z,8.57
2022-09-27T22:11:47.743Z,8.23
2022-09-27T22:14:17.334Z,8.20
2022-09-27T22:16:46.281Z,8.00
2022-09-27T22:19:18.071Z,8.37
2022-09-27T22:21:47.289Z,8.27
2022-09-27T22:24:18.181Z,7.40
2022-09-27T22:26:49.860Z,7.50
2022-09-27T22:29:19.395Z,7.80
2022-09-27T22:31:48.826Z,7.73
2022-09-27T22:34:29.063Z,7.47
2022-09-27T22:36:59.149Z,7.63
2022-09-27T22:39:29.027Z,7.47
2022-09-27T22:41:58.113Z,7.30
2022-09-27T22:44:26.964Z,6.93
2022-09-27T22:46:55.693Z,7.87
2022-09-27T22:49:26.097Z,8.17
2022-09-27T22:51:54.840Z,7.60
2022-09-27T22:54:23.703Z,8.50
2022-09-27T22:56:57.385Z,8.10
2022-09-27T22:59:27.141Z,8.57
2022-09-27T23:01:56.411Z,8.93
2022-09-27T23:04:26.801Z,9.50
2022-09-27T23:06:55.693Z,8.67
2022-09-27T23:09:24.726Z,8.60
2022-09-27T23:11:54.365Z,8.60
2022-09-27T23:14:23.403Z,8.87
2022-09-27T23:16:52.435Z,8.23
2022-09-27T23:19:22.411Z,8.40
2022-09-27T23:21:52.275Z,7.80
2022-09-27T23:24:21.284Z,7.63
2022-09-27T23:27:10.367Z,6.97
2022-09-27T23:29:39.373Z,7.63
2022-09-27T23:32:07.937Z,7.07
2022-09-27T23:34:36.452Z,7.23
2022-09-27T23:37:07.004Z,6.93
2022-09-27T23:39:35.616Z,6.30
2022-09-27T23:42:04.194Z,6.53
2022-09-27T23:44:32.739Z,6.73
2022-09-27T23:47:02.336Z,6.53
2022-09-27T23:49:32.205Z,6.97
2022-09-27T23:52:01.469Z,6.97
2022-09-27T23:54:31.676Z,6.33
2022-09-27T23:57:00.202Z,7.07
2022-09-27T23:59:28.753Z,7.07
